Time;durP1;ratioP1;P1;durP2;ratioP2;P2;SDS_P1;SDS_P2;PMS_P1;PMS_P2;Temp;Humidity;BMP_temperature;BMP_pressure;BME280_temperature;BME280_humidity;BME280_pressure;Samples;Min_cycle;Max_cycle;Signal;HPM_P1;HPM_P2
2023/01/11 00:01:33;;;;;;;;;0.00;0.00;;;;;14.02;100.00;100740.19;5026319;28;45628;-75
2023/01/11 00:03:58;;;;;;;;;0.33;0.33;;;;;14.02;100.00;100738.25;5030379;28;45693;-76
2023/01/11 00:06:24;;;;;;;;;3.33;2.67;;;;;14.02;100.00;100729.16;5033522;28;46618;-75
2023/01/11 00:08:49;;;;;;;;;0.67;0.00;;;;;13.94;100.00;100738.59;5030673;28;45639;-75
2023/01/11 00:11:15;;;;;;;;;0.67;0.67;;;;;14.01;100.00;100744.84;5030770;28;45685;-75
2023/01/11 00:13:44;;;;;;;;;0.33;0.33;;;;;14.00;100.00;100737.66;5024149;28;45509;-75
2023/01/11 00:16:10;;;;;;;;;0.67;0.00;;;;;14.04;100.00;100735.25;5032111;28;45772;-77
2023/01/11 00:18:36;;;;;;;;;0.00;0.00;;;;;14.05;100.00;100736.94;5032500;28;45873;-74
2023/01/11 00:21:05;;;;;;;;;3.33;0.67;;;;;13.99;100.00;100721.34;5021101;28;45382;-75
2023/01/11 00:23:35;;;;;;;;;0.00;0.00;;;;;14.03;100.00;100717.88;5020100;28;45645;-74
2023/01/11 00:26:06;;;;;;;;;1.00;1.00;;;;;14.02;100.00;100726.38;5033236;28;45356;-75
2023/01/11 00:28:31;;;;;;;;;2.00;2.00;;;;;14.03;100.00;100725.31;5029887;28;45446;-74
2023/01/11 00:30:57;;;;;;;;;0.67;0.67;;;;;14.04;100.00;100716.81;5014677;28;45497;-75
2023/01/11 00:33:23;;;;;;;;;1.33;0.33;;;;;14.04;100.00;100715.94;5024840;28;45565;-73
2023/01/11 00:35:51;;;;;;;;;2.67;1.00;;;;;14.02;100.00;100705.16;5015719;28;45930;-74
2023/01/11 00:38:42;;;;;;;;;0.00;0.00;;;;;14.04;100.00;100710.44;5015326;28;45666;-75
2023/01/11 00:49:18;;;;;;;;;0.67;0.67;;;;;13.91;100.00;100693.00;5026272;28;45377;-75
2023/01/11 00:51:44;;;;;;;;;0.00;0.00;;;;;13.96;100.00;100706.09;5033059;28;45722;-75
2023/01/11 00:54:09;;;;;;;;;2.00;0.00;;;;;13.97;100.00;100687.63;5031013;28;45319;-75
2023/01/11 00:56:35;;;;;;;;;0.33;0.00;;;;;13.97;100.00;100690.38;5032848;28;45674;-74
2023/01/11 00:59:01;;;;;;;;;4.00;1.00;;;;;13.94;100.00;100684.28;5032617;28;45665;-74
2023/01/11 01:01:27;;;;;;;;;0.67;0.67;;;;;13.92;100.00;100685.56;5021884;28;45661;-75
2023/01/11 01:03:52;;;;;;;;;0.00;0.00;;;;;13.83;100.00;100663.03;5025092;28;46574;-73
2023/01/11 01:06:18;;;;;;;;;0.00;0.00;;;;;13.91;100.00;100687.50;5032984;28;45925;-74
2023/01/11 01:08:43;;;;;;;;;0.00;0.00;;;;;13.90;100.00;100685.81;5032856;28;45576;-73
2023/01/11 01:11:09;;;;;;;;;0.00;0.00;;;;;13.92;100.00;100683.66;5026984;28;46003;-74
2023/01/11 01:16:18;;;;;;;;;1.67;1.33;;;;;13.83;100.00;100674.03;5018904;28;45470;-76
2023/01/11 01:18:44;;;;;;;;;1.33;0.33;;;;;13.88;100.00;100679.69;5029914;28;45784;-74
2023/01/11 01:21:10;;;;;;;;;0.00;0.00;;;;;13.92;100.00;100683.66;5028373;28;45462;-73
2023/01/11 01:23:35;;;;;;;;;0.00;0.00;;;;;13.90;100.00;100673.94;5025506;28;45321;-75
2023/01/11 01:26:05;;;;;;;;;0.00;0.00;;;;;13.93;100.00;100667.97;5031032;28;47207;-75
2023/01/11 01:28:30;;;;;;;;;0.00;0.00;;;;;13.90;100.00;100657.41;5016405;28;45576;-75
2023/01/11 01:30:56;;;;;;;;;0.00;0.00;;;;;13.89;100.00;100659.31;5016323;28;45299;-74
2023/01/11 01:33:22;;;;;;;;;0.00;0.00;;;;;13.89;100.00;100662.09;5015286;28;45486;-74
2023/01/11 01:35:47;;;;;;;;;0.00;0.00;;;;;13.89;100.00;100651.06;5032464;28;46268;-76
2023/01/11 01:38:13;;;;;;;;;1.00;0.00;;;;;13.92;100.00;100649.72;5018623;28;45534;-76
2023/01/11 01:40:44;;;;;;;;;0.00;0.00;;;;;13.88;100.00;100654.88;5020223;28;45665;-77
2023/01/11 01:43:11;;;;;;;;;0.00;0.00;;;;;13.88;100.00;100657.63;5031371;28;46983;-75
2023/01/11 01:45:37;;;;;;;;;0.00;0.00;;;;;13.90;100.00;100661.00;5032410;28;45657;-75
2023/01/11 01:48:05;;;;;;;;;0.00;0.00;;;;;13.90;100.00;100644.44;5033725;28;45462;-73
2023/01/11 01:50:39;;;;;;;;;0.00;0.00;;;;;13.93;100.00;100645.91;5019936;28;45421;-74
2023/01/11 01:53:13;;;;;;;;;0.00;0.00;;;;;13.93;100.00;100648.66;5016673;28;45479;-75
2023/01/11 01:55:42;;;;;;;;;0.00;0.00;;;;;13.93;100.00;100643.16;5014267;28;45445;-73
2023/01/11 01:58:15;;;;;;;;;0.00;0.00;;;;;13.81;100.00;100632.06;5026841;28;45893;-77
2023/01/11 02:00:43;;;;;;;;;0.00;0.00;;;;;13.92;100.00;100653.34;5022444;28;45534;-76
2023/01/11 02:03:12;;;;;;;;;0.33;0.33;;;;;13.91;100.00;100657.16;5031044;28;46475;-74
2023/01/11 02:05:38;;;;;;;;;0.00;0.00;;;;;13.92;100.00;100666.28;5022812;28;46129;-74
2023/01/11 02:08:10;;;;;;;;;0.00;0.00;;;;;13.92;100.00;100661.63;5027980;28;45845;-76
2023/01/11 02:10:36;;;;;;;;;0.00;0.00;;;;;13.97;100.00;100674.69;5020330;28;45432;-73
2023/01/11 02:13:09;;;;;;;;;0.33;0.00;;;;;13.96;100.00;100661.97;5031544;28;45564;-73
2023/01/11 02:15:37;;;;;;;;;0.00;0.00;;;;;14.00;100.00;100676.16;5031471;28;45319;-75
2023/01/11 02:18:08;;;;;;;;;0.00;0.00;;;;;13.99;100.00;100678.06;5027199;28;45342;-76
2023/01/11 02:21:20;;;;;;;;;0.00;0.00;;;;;14.02;100.00;100671.25;5014612;28;45429;-75
2023/01/11 02:24:08;;;;;;;;;0.00;0.00;;;;;14.04;100.00;100677.34;4972497;28;46640;-75
2023/01/11 02:26:54;;;;;;;;;0.00;0.00;;;;;14.05;100.00;100665.25;5017248;28;45665;-74
2023/01/11 02:29:29;;;;;;;;;0.00;0.00;;;;;14.04;100.00;100661.66;5014440;28;45570;-75
2023/01/11 02:32:01;;;;;;;;;0.33;0.00;;;;;14.04;100.00;100658.03;5027152;28;45409;-74
2023/01/11 02:34:40;;;;;;;;;0.00;0.00;;;;;14.04;100.00;100663.56;5028264;28;45423;-73
2023/01/11 02:37:47;;;;;;;;;0.00;0.00;;;;;14.04;100.00;100658.03;5030905;28;46938;-75
2023/01/11 02:40:25;;;;;;;;;0.00;0.00;;;;;14.04;100.00;100653.41;5011272;28;45352;-74
2023/01/11 02:46:04;;;;;;;;;0.00;0.00;;;;;14.04;100.00;100650.63;5029192;28;45424;-75
2023/01/11 02:48:42;;;;;;;;;0.00;0.00;;;;;14.05;100.00;100662.50;5031329;28;45778;-73
2023/01/11 02:51:15;;;;;;;;;1.00;1.00;;;;;14.04;100.00;100664.41;5033915;28;45423;-75
2023/01/11 02:53:51;;;;;;;;;0.00;0.00;;;;;14.07;100.00;100655.69;5030605;28;45560;-73
2023/01/11 02:56:24;;;;;;;;;1.00;0.00;;;;;14.06;100.00;100647.66;5032937;28;45429;-74
2023/01/11 02:58:52;;;;;;;;;0.00;0.00;;;;;14.08;100.00;100653.75;5022632;28;46474;-74
2023/01/11 03:01:21;;;;;;;;;0.00;0.00;;;;;14.06;100.00;100651.22;5029868;28;45712;-73
2023/01/11 03:03:47;;;;;;;;;0.00;0.00;;;;;14.06;100.00;100640.19;5027453;28;45408;-74
2023/01/11 03:06:19;;;;;;;;;0.00;0.00;;;;;13.98;100.00;100620.38;5031474;28;45824;-75
2023/01/11 03:09:06;;;;;;;;;0.00;0.00;;;;;14.12;100.00;100646.69;5029871;28;46046;-74
2023/01/11 03:14:47;;;;;;;;;0.00;0.00;;;;;14.12;100.00;100639.25;5016255;28;45497;-75
2023/01/11 03:17:18;;;;;;;;;0.00;0.00;;;;;14.12;100.00;100639.25;5026068;28;45657;-75
2023/01/11 03:19:52;;;;;;;;;0.00;0.00;;;;;14.12;100.00;100638.44;5025421;28;45524;-76
2023/01/11 03:22:41;;;;;;;;;0.00;0.00;;;;;14.17;100.00;100640.47;5016462;28;45510;-74
2023/01/11 03:25:07;;;;;;;;;0.00;0.00;;;;;14.18;100.00;100647.69;5026090;28;45638;-76
2023/01/11 03:27:37;;;;;;;;;0.00;0.00;;;;;14.07;100.00;100624.47;5029898;28;45447;-76
2023/01/11 03:30:32;;;;;;;;;0.00;0.00;;;;;14.19;100.00;100643.81;5014087;28;45754;-76
2023/01/11 03:33:09;;;;;;;;;0.00;0.00;;;;;14.21;100.00;100642.53;5014503;28;45410;-75
2023/01/11 03:35:37;;;;;;;;;0.00;0.00;;;;;14.13;100.00;100640.09;5016104;28;45703;-76
2023/01/11 03:38:14;;;;;;;;;0.00;0.00;;;;;14.25;100.00;100654.78;5021347;28;45662;-74
2023/01/11 03:40:54;;;;;;;;;0.00;0.00;;;;;14.23;100.00;100656.91;5022710;28;45802;-75
2023/01/11 03:43:23;;;;;;;;;0.00;0.00;;;;;14.19;100.00;100643.81;5017295;28;45689;-75
2023/01/11 03:46:10;;;;;;;;;0.00;0.00;;;;;14.21;100.00;100655.47;5017436;28;45718;-74
2023/01/11 03:48:41;;;;;;;;;0.00;0.00;;;;;14.19;100.00;100652.09;5013958;28;45405;-76
2023/01/11 03:51:11;;;;;;;;;0.25;0.00;;;;;14.16;100.00;100656.19;5029978;28;45654;-75
2023/01/11 03:53:39;;;;;;;;;0.00;0.00;;;;;14.13;100.00;100651.13;5028160;28;45456;-75
2023/01/11 03:56:09;;;;;;;;;0.00;0.00;;;;;14.03;100.00;100642.59;5013272;28;45820;-75
2023/01/11 03:58:35;;;;;;;;;0.00;0.00;;;;;14.09;100.00;100660.97;5019180;28;45719;-73
2023/01/11 04:01:02;;;;;;;;;0.00;0.00;;;;;14.10;100.00;100657.09;5025392;28;45812;-74
2023/01/11 04:03:27;;;;;;;;;0.00;0.00;;;;;14.05;100.00;100660.56;5032905;28;45913;-76
2023/01/11 04:05:58;;;;;;;;;0.00;0.00;;;;;14.06;100.00;100672.47;5028627;28;45724;-73
2023/01/11 04:08:24;;;;;;;;;0.00;0.00;;;;;14.02;100.00;100662.97;5014608;28;45633;-74
2023/01/11 04:10:49;;;;;;;;;0.00;0.00;;;;;14.00;100.00;100667.88;5035103;28;46919;-75
2023/01/11 04:13:15;;;;;;;;;0.00;0.00;;;;;14.00;100.00;100670.63;5015950;28;45766;-75
2023/01/11 04:15:40;;;;;;;;;0.00;0.00;;;;;13.95;100.00;100666.66;5024851;28;45663;-76
2023/01/11 04:18:06;;;;;;;;;0.00;0.00;;;;;13.92;100.00;100663.50;5020612;28;45862;-77
2023/01/11 04:20:37;;;;;;;;;0.00;0.00;;;;;13.91;100.00;100659.09;5029556;28;46262;-76
2023/01/11 04:23:04;;;;;;;;;0.00;0.00;;;;;13.90;100.00;100657.41;5022683;28;45638;-74
2023/01/11 04:25:29;;;;;;;;;0.00;0.00;;;;;13.91;100.00;100650.81;5019638;28;45323;-75
2023/01/11 04:27:56;;;;;;;;;0.00;0.00;;;;;13.90;100.00;100660.16;5020820;28;45859;-75
2023/01/11 04:30:22;;;;;;;;;0.00;0.00;;;;;13.80;100.00;100649.69;5032613;28;47021;-75
2023/01/11 04:32:48;;;;;;;;;0.00;0.00;;;;;13.89;100.00;100678.63;5019852;28;45530;-76
2023/01/11 04:35:13;;;;;;;;;0.00;0.00;;;;;13.77;100.00;100652.91;5026690;28;45413;-75
2023/01/11 04:37:38;;;;;;;;;0.00;0.00;;;;;13.90;100.00;100688.56;5019420;28;45752;-77
2023/01/11 04:40:05;;;;;;;;;0.00;0.00;;;;;13.88;100.00;100732.06;5014219;28;45803;-75
2023/01/11 04:42:30;;;;;;;;;0.00;0.00;;;;;13.85;100.00;100738.06;5014228;28;45782;-77
2023/01/11 04:44:55;;;;;;;;;0.00;0.00;;;;;13.78;100.00;100724.34;5018021;28;45797;-75
2023/01/11 04:47:23;;;;;;;;;0.00;0.00;;;;;13.74;100.00;100744.31;5022082;28;45685;-75
2023/01/11 04:49:48;;;;;;;;;0.00;0.00;;;;;13.69;100.00;100741.44;5031286;28;47432;-78
2023/01/11 04:52:16;;;;;;;;;0.00;0.00;;;;;13.62;100.00;100737.91;5016566;28;45384;-75
2023/01/11 04:54:42;;;;;;;;;0.00;0.00;;;;;13.58;100.00;100737.53;5028243;28;45409;-78
2023/01/11 04:57:11;;;;;;;;;0.00;0.00;;;;;13.55;100.00;100744.31;5018940;28;45647;-75
2023/01/11 04:59:37;;;;;;;;;0.33;0.33;;;;;13.53;100.00;100752.00;5020940;28;45765;-75
2023/01/11 05:02:02;;;;;;;;;0.00;0.00;;;;;13.50;100.00;100746.94;5015924;28;45589;-76
2023/01/11 05:04:28;;;;;;;;;0.67;0.00;;;;;13.47;100.00;100763.91;5046328;28;45806;-76
2023/01/11 05:06:53;;;;;;;;;2.33;0.00;;;;;13.46;100.00;100773.25;5028136;28;45786;-75
2023/01/11 05:09:19;;;;;;;;;0.67;0.00;;;;;13.44;100.00;100786.41;5027043;28;45696;-76
2023/01/11 05:11:45;;;;;;;;;0.00;0.00;;;;;13.39;100.00;100784.31;5024298;28;45582;-77
2023/01/11 05:14:11;;;;;;;;;2.00;2.00;;;;;13.33;100.00;100792.63;5023264;28;45832;-76
2023/01/11 05:16:36;;;;;;;;;0.00;0.00;;;;;13.19;100.00;100784.50;5015992;28;45824;-75
2023/01/11 05:19:03;;;;;;;;;0.67;0.67;;;;;13.18;100.00;100793.81;5017832;28;45405;-76
2023/01/11 05:21:33;;;;;;;;;3.33;2.33;;;;;13.13;100.00;100787.28;5019186;28;45659;-76
2023/01/11 05:24:01;;;;;;;;;1.00;0.00;;;;;13.08;100.00;100785.22;5014339;28;45650;-77
2023/01/11 05:26:29;;;;;;;;;2.00;1.00;;;;;13.09;100.00;100797.91;5018488;28;45484;-76
2023/01/11 05:28:57;;;;;;;;;42.00;32.67;;;;;12.98;100.00;100782.09;5014930;28;47629;-76
2023/01/11 05:31:23;;;;;;;;;23.67;16.33;;;;;13.05;100.00;100804.94;5015254;28;45888;-77
2023/01/11 05:33:48;;;;;;;;;2.33;1.67;;;;;13.03;100.00;100812.59;5027729;28;45651;-75
2023/01/11 05:36:20;;;;;;;;;9.00;8.00;;;;;12.95;100.00;100830.22;5029191;28;47332;-77
2023/01/11 05:38:47;;;;;;;;;9.33;8.67;;;;;12.90;100.00;100827.28;5017260;28;45385;-75
2023/01/11 05:41:15;;;;;;;;;2.00;2.00;;;;;12.85;100.00;100827.94;5020913;28;45641;-77
2023/01/11 05:46:27;;;;;;;;;3.33;3.33;;;;;12.83;100.00;100843.84;5019540;28;45414;-77
2023/01/11 05:48:57;;;;;;;;;4.33;1.00;;;;;12.80;100.00;100837.91;5020782;28;45527;-76
2023/01/11 05:51:24;;;;;;;;;0.00;0.00;;;;;12.80;100.00;100846.19;5021956;28;45674;-76
2023/01/11 05:53:49;;;;;;;;;3.00;1.33;;;;;12.75;100.00;100844.09;5025253;28;45311;-75
2023/01/11 05:56:15;;;;;;;;;2.00;2.00;;;;;12.72;100.00;100833.53;5030106;28;45522;-75
2023/01/11 05:58:40;;;;;;;;;1.00;1.00;;;;;12.74;100.00;100847.94;5026439;28;46371;-75
2023/01/11 06:01:06;;;;;;;;;3.67;0.67;;;;;12.73;100.00;100856.41;5026169;28;45486;-74
2023/01/11 06:03:31;;;;;;;;;1.67;1.67;;;;;12.65;100.00;100854.72;5030714;28;45455;-76
2023/01/11 06:05:58;;;;;;;;;2.67;1.00;;;;;12.66;100.00;100861.94;5028346;28;45729;-76
2023/01/11 06:08:24;;;;;;;;;0.33;0.33;;;;;12.63;100.00;100865.97;5029108;28;47237;-75
2023/01/11 06:10:54;;;;;;;;;2.67;0.67;;;;;12.62;100.00;100867.03;5029548;28;45379;-74
2023/01/11 06:13:26;;;;;;;;;6.33;6.33;;;;;12.59;100.00;100856.47;5012701;28;45835;-76
2023/01/11 06:15:57;;;;;;;;;5.00;3.67;;;;;12.59;100.00;100867.47;5022618;28;46271;-74
2023/01/11 06:18:22;;;;;;;;;4.67;4.67;;;;;12.59;100.00;100878.50;5020614;28;46293;-75
2023/01/11 06:20:53;;;;;;;;;1.00;1.00;;;;;12.52;100.00;100867.50;5021603;28;45562;-76
2023/01/11 06:23:19;;;;;;;;;2.33;1.33;;;;;12.51;100.00;100881.47;5031724;28;45320;-75
2023/01/11 06:25:45;;;;;;;;;2.67;2.00;;;;;12.42;100.00;100883.63;5029262;28;45525;-72
2023/01/11 06:28:10;;;;;;;;;1.33;1.33;;;;;12.41;100.00;100892.09;5028799;28;45550;-76
2023/01/11 06:30:36;;;;;;;;;2.67;2.00;;;;;12.29;100.00;100880.91;5032057;28;45564;-76
2023/01/11 06:33:05;;;;;;;;;3.00;2.00;;;;;12.32;100.00;100900.59;5031547;28;45408;-74
2023/01/11 06:35:42;;;;;;;;;0.00;0.00;;;;;12.30;100.00;100908.19;5018963;28;45449;-71
2023/01/11 06:38:10;;;;;;;;;4.33;2.67;;;;;12.29;100.00;100902.91;5015957;28;45663;-75
2023/01/11 06:40:37;;;;;;;;;2.00;2.00;;;;;12.17;100.00;100909.09;5017316;28;45518;-75
2023/01/11 06:43:03;;;;;;;;;3.33;0.67;;;;;12.14;100.00;100914.16;5020826;28;45638;-73
2023/01/11 06:45:30;;;;;;;;;1.33;1.33;;;;;12.07;100.00;100919.69;5017210;28;45565;-79
2023/01/11 06:47:55;;;;;;;;;1.67;1.33;;;;;12.15;100.00;100944.19;5011688;28;45689;-79
2023/01/11 06:50:21;;;;;;;;;4.33;2.00;;;;;12.14;100.00;100941.66;5015196;28;45705;-78
2023/01/11 06:52:54;;;;;;;;;1.00;1.00;;;;;12.14;100.00;100948.03;5027109;28;45568;-78
2023/01/11 06:55:21;;;;;;;;;4.00;3.00;;;;;12.04;100.00;100930.28;5018188;28;45417;-78
2023/01/11 06:57:46;;;;;;;;;1.00;1.00;;;;;12.14;100.00;100948.03;5028034;28;47048;-72
2023/01/11 07:00:12;;;;;;;;;2.00;2.00;;;;;12.18;100.00;100946.53;5016704;28;45277;-75
2023/01/11 07:02:37;;;;;;;;;2.67;2.33;;;;;12.10;100.00;100935.75;5025461;28;45947;-75
2023/01/11 07:05:03;;;;;;;;;3.33;2.00;;;;;12.22;100.00;100935.13;5031135;28;45309;-75
2023/01/11 07:07:36;;;;;;;;;4.00;2.33;;;;;12.16;100.00;100940.41;5028586;28;45998;-76
2023/01/11 07:10:02;;;;;;;;;5.67;1.67;;;;;12.08;100.00;100940.66;5027617;28;45809;-76
2023/01/11 07:12:28;;;;;;;;;4.33;3.33;;;;;12.03;100.00;100934.94;5028223;28;45603;-74
2023/01/11 07:14:53;;;;;;;;;7.00;3.00;;;;;12.05;100.00;100945.72;5029884;28;45533;-76
2023/01/11 07:17:18;;;;;;;;;4.00;2.33;;;;;12.03;100.00;100956.09;5025960;28;47553;-73
2023/01/11 07:19:44;;;;;;;;;2.00;2.00;;;;;11.97;100.00;100958.59;5026197;28;47009;-72
2023/01/11 07:22:09;;;;;;;;;2.33;2.33;;;;;12.00;100.00;100960.09;5034766;28;45806;-72
2023/01/11 07:24:35;;;;;;;;;6.67;2.33;;;;;12.00;100.00;100957.34;5025919;28;45923;-73
2023/01/11 07:27:01;;;;;;;;;2.00;2.00;;;;;11.98;100.00;100960.31;5032365;28;47223;-74
2023/01/11 07:29:27;;;;;;;;;3.00;2.00;;;;;11.93;100.00;100967.50;5043783;28;45946;-74
2023/01/11 07:31:53;;;;;;;;;3.00;1.00;;;;;11.91;100.00;100973.16;5022924;28;46008;-74
2023/01/11 07:34:18;;;;;;;;;5.00;1.00;;;;;11.83;100.00;100974.25;5028125;28;45930;-76
2023/01/11 07:36:44;;;;;;;;;4.33;2.67;;;;;11.81;100.00;100979.09;5036099;28;46054;-75
2023/01/11 07:39:09;;;;;;;;;2.33;2.33;;;;;11.76;100.00;100984.38;5035130;28;45455;-73
2023/01/11 07:44:21;;;;;;;;;6.00;3.67;;;;;11.61;100.00;100994.72;5038220;28;45600;-73
2023/01/11 07:46:47;;;;;;;;;4.00;3.00;;;;;11.58;100.00;100997.91;5013812;28;45998;-73
2023/01/11 07:49:12;;;;;;;;;6.00;3.00;;;;;11.55;100.00;101021.13;5033477;28;45523;-72
2023/01/11 07:51:38;;;;;;;;;5.33;2.00;;;;;11.49;100.00;101028.28;5043390;28;45776;-73
2023/01/11 07:54:03;;;;;;;;;3.67;2.00;;;;;11.47;100.00;101033.16;5039114;28;45375;-72
2023/01/11 07:56:30;;;;;;;;;2.00;2.00;;;;;11.44;100.00;101041.81;5043039;28;48366;-72
2023/01/11 07:58:56;;;;;;;;;4.00;2.00;;;;;11.45;100.00;101048.16;5021701;28;45778;-71
2023/01/11 08:01:22;;;;;;;;;2.00;2.00;;;;;11.42;100.00;101057.66;5033232;28;45493;-71
2023/01/11 08:03:48;;;;;;;;;3.67;2.33;;;;;11.43;100.00;101056.59;5024221;28;45429;-75
2023/01/11 08:06:13;;;;;;;;;6.67;4.67;;;;;11.41;100.00;101064.19;5018856;28;45561;-72
2023/01/11 08:08:39;;;;;;;;;16.67;10.67;;;;;11.42;100.00;101068.66;5021318;28;45350;-71
2023/01/11 08:16:33;;;;;;;;;5.00;3.33;;;;;11.42;100.00;101087.00;5014951;28;46356;-73
2023/01/11 08:18:59;;;;;;;;;1.00;1.00;;;;;11.42;100.00;101079.63;5030132;28;45653;-74
2023/01/11 08:21:24;;;;;;;;;3.67;0.00;;;;;11.45;100.00;101092.09;5027956;28;45874;-74
2023/01/11 08:23:52;;;;;;;;;2.67;1.00;;;;;11.43;100.00;101084.06;5015997;28;45737;-74
2023/01/11 08:26:18;;;;;;;;;3.00;2.00;;;;;11.48;100.00;101089.78;5017020;28;46915;-76
2023/01/11 08:28:44;;;;;;;;;2.00;1.00;;;;;11.48;100.00;101087.03;5020624;28;45398;-78
2023/01/11 08:31:09;;;;;;;;;4.00;2.33;;;;;11.57;100.00;101100.59;5016597;28;45654;-75
2023/01/11 08:33:35;;;;;;;;;6.00;2.67;;;;;11.56;100.00;101109.91;5015315;28;45745;-73
2023/01/11 08:36:04;;;;;;;;;2.67;1.00;;;;;11.59;100.00;101115.81;5017011;28;46646;-75
2023/01/11 08:38:30;;;;;;;;;1.67;1.00;;;;;11.57;100.00;101108.81;5012308;28;45375;-74
2023/01/11 08:40:55;;;;;;;;;2.67;2.00;;;;;11.60;100.00;101127.63;5017508;28;45322;-75
2023/01/11 08:43:21;;;;;;;;;3.33;2.67;;;;;11.65;100.00;101136.13;5026121;28;45381;-73
2023/01/11 08:45:46;;;;;;;;;6.67;2.33;;;;;11.67;100.00;101128.50;5021002;28;45397;-73
2023/01/11 08:48:12;;;;;;;;;3.67;1.00;;;;;11.70;100.00;101135.50;5031476;28;46007;-70
2023/01/11 08:50:37;;;;;;;;;3.67;2.00;;;;;11.70;100.00;101139.09;5031805;28;45843;-72
2023/01/11 08:53:03;;;;;;;;;3.33;3.33;;;;;11.72;100.00;101141.63;5031908;28;45951;-72
2023/01/11 08:55:29;;;;;;;;;3.33;2.33;;;;;11.73;100.00;101138.66;5016505;28;45382;-72
2023/01/11 08:57:56;;;;;;;;;4.67;2.00;;;;;11.78;100.00;101146.28;5017439;28;45735;-73
2023/01/11 09:00:21;;;;;;;;;4.67;2.00;;;;;11.83;100.00;101150.13;5026730;28;45804;-75
2023/01/11 09:02:47;;;;;;;;;4.00;2.00;;;;;11.87;100.00;101160.69;5020088;28;45479;-74
2023/01/11 09:05:12;;;;;;;;;1.67;0.67;;;;;11.97;100.00;101158.44;5016146;28;46440;-73
2023/01/11 09:07:38;;;;;;;;;8.67;2.00;;;;;12.07;100.00;101150.63;5023235;28;45426;-73
2023/01/11 09:10:04;;;;;;;;;1.33;1.00;;;;;12.17;100.00;101148.31;5020805;28;45599;-72
2023/01/11 09:12:31;;;;;;;;;6.33;1.33;;;;;12.20;100.00;101149.81;5027426;28;45895;-74
2023/01/11 09:14:57;;;;;;;;;2.67;2.33;;;;;12.36;100.00;101160.41;5021822;28;45615;-74
2023/01/11 09:17:23;;;;;;;;;4.33;2.00;;;;;12.41;100.00;101173.53;5029453;28;45459;-73
2023/01/11 09:19:48;;;;;;;;;4.00;3.00;;;;;12.44;100.00;101180.47;5021688;28;45456;-72
2023/01/11 09:22:15;;;;;;;;;3.00;1.00;;;;;12.40;100.00;101185.56;5030337;28;45552;-76
2023/01/11 09:24:40;;;;;;;;;3.33;3.00;;;;;12.40;100.00;101187.47;5032223;28;45923;-72
2023/01/11 09:27:05;;;;;;;;;4.33;2.33;;;;;12.27;100.00;101189.13;5029722;28;45727;-74
2023/01/11 09:29:31;;;;;;;;;11.33;8.67;;;;;12.33;100.00;101192.97;5030843;28;45358;-72
2023/01/11 09:31:56;;;;;;;;;5.00;2.67;;;;;12.33;100.00;101193.78;5030860;28;45735;-73
2023/01/11 09:34:24;;;;;;;;;2.00;2.00;;;;;12.30;100.00;101196.13;5018584;28;46530;-72
2023/01/11 09:36:49;;;;;;;;;3.33;3.33;;;;;12.28;100.00;101209.25;5022853;28;45441;-73
2023/01/11 09:39:18;;;;;;;;;4.00;2.33;;;;;12.25;100.00;101212.44;5030290;28;45717;-73
2023/01/11 09:41:49;;;;;;;;;2.33;2.33;;;;;12.23;100.00;101209.00;5036507;28;46470;-72
2023/01/11 09:44:21;;;;;;;;;4.67;2.33;;;;;12.20;100.00;101210.31;5033017;28;45729;-75
2023/01/11 09:46:54;;;;;;;;;3.00;1.00;;;;;12.19;100.00;101211.34;5031742;28;45564;-72
2023/01/11 09:49:30;;;;;;;;;3.67;3.00;;;;;12.10;100.00;101216.19;5013410;28;46003;-73
2023/01/11 09:52:12;;;;;;;;;3.00;2.00;;;;;12.08;100.00;101220.19;5014596;28;45514;-74
2023/01/11 09:54:37;;;;;;;;;2.00;1.00;;;;;11.95;100.00;101219.09;5022177;28;47013;-73
2023/01/11 09:57:15;;;;;;;;;3.67;2.00;;;;;12.08;100.00;101233.94;5014674;28;45407;-72
2023/01/11 09:59:51;;;;;;;;;3.67;1.67;;;;;12.16;100.00;101242.84;5036638;28;45747;-72
2023/01/11 10:02:29;;;;;;;;;5.67;2.00;;;;;12.36;100.00;101242.06;5017775;28;45792;-75
2023/01/11 10:05:17;;;;;;;;;2.00;1.00;;;;;12.38;100.00;101250.97;5028566;28;45756;-75
2023/01/11 10:08:28;;;;;;;;;6.33;2.00;;;;;12.61;100.00;101255.22;5029123;28;45459;-73
2023/01/11 10:11:11;;;;;;;;;7.00;3.00;;;;;12.68;100.00;101242.31;5026945;28;45413;-74
2023/01/11 10:13:52;;;;;;;;;3.00;1.00;;;;;12.75;100.00;101234.88;5027757;28;46600;-73
2023/01/11 10:16:37;;;;;;;;;5.00;3.33;;;;;13.19;100.00;101247.16;5028015;28;46276;-73
2023/01/11 10:19:15;;;;;;;;;3.67;1.67;;;;;13.58;100.00;101255.59;5021192;28;45297;-73
2023/01/11 10:21:57;;;;;;;;;1.33;1.33;;;;;13.72;100.00;101246.19;5030912;28;45695;-73
2023/01/11 10:24:30;;;;;;;;;0.33;0.00;;;;;13.68;100.00;101242.22;5020577;28;45944;-74
2023/01/11 10:27:00;;;;;;;;;2.67;2.00;;;;;13.76;100.00;101250.22;5023130;28;46232;-73
2023/01/11 10:29:38;;;;;;;;;2.00;2.00;;;;;13.97;100.00;101258.41;5026138;28;45732;-72
2023/01/11 10:32:33;;;;;;;;;1.33;0.67;;;;;14.04;100.00;101249.06;5021628;28;45631;-71
2023/01/11 10:35:23;;;;;;;;;2.67;0.67;;;;;14.20;100.00;101269.75;5015377;28;46185;-73
2023/01/11 10:41:01;;;;;;;;;1.67;0.67;;;;;14.48;100.00;101263.03;5015947;28;45401;-73
2023/01/11 10:43:28;;;;;;;;;2.67;2.67;;;;;14.89;100.00;101256.16;5017225;28;45704;-73
2023/01/11 10:45:58;;;;;;;;;4.67;1.00;;;;;15.30;100.00;101251.09;5036886;28;45934;-73
2023/01/11 10:48:37;;;;;;;;;3.00;0.33;;;;;15.61;100.00;101266.72;5016365;28;46155;-74
2023/01/11 10:51:15;;;;;;;;;2.67;0.67;;;;;15.78;100.00;101246.78;5024421;28;45645;-74
2023/01/11 10:53:58;;;;;;;;;3.00;1.67;;;;;15.90;100.00;101267.09;5014467;28;45890;-75
2023/01/11 10:56:38;;;;;;;;;1.00;0.33;;;;;15.99;100.00;101265.69;5018818;28;45747;-73
2023/01/11 10:59:16;;;;;;;;;5.33;2.00;;;;;16.14;100.00;101269.97;5043182;28;46782;-74
2023/01/11 11:02:07;;;;;;;;;2.00;2.00;;;;;16.08;100.00;101262.59;5032976;28;45725;-78
2023/01/11 11:04:53;;;;;;;;;1.67;0.00;;;;;16.16;100.00;101281.66;5031524;28;45558;-80
2023/01/11 11:07:33;;;;;;;;;8.33;2.00;;;;;16.20;100.00;101285.66;5032726;28;45407;-74
2023/01/11 11:10:20;;;;;;;;;1.00;1.00;;;;;16.35;100.00;101286.06;5033248;28;46163;-81
2023/01/11 11:13:21;;;;;;;;;4.33;1.67;;;;;16.19;100.00;101281.19;5034720;28;45511;-81
2023/01/11 11:15:49;;;;;;;;;8.33;2.00;;;;;16.33;100.00;101288.22;5008217;28;45788;-80
2023/01/11 11:18:15;;;;;;;;;7.33;3.00;;;;;16.27;100.00;101286.38;5027154;28;46604;-77
2023/01/11 11:20:42;;;;;;;;;2.33;0.67;;;;;16.06;100.00;101260.03;5034235;28;46830;-78
2023/01/11 11:23:14;;;;;;;;;5.00;1.00;;;;;16.05;100.00;101275.81;5025411;28;45385;-78
2023/01/11 11:25:41;;;;;;;;;3.00;1.00;;;;;15.91;100.00;101281.75;5018187;28;45373;-80
2023/01/11 11:28:24;;;;;;;;;2.50;2.00;;;;;15.87;100.00;101284.97;5020379;28;46746;-75
2023/01/11 11:30:55;;;;;;;;;1.33;1.33;;;;;16.02;100.00;101303.13;5031218;28;46090;-79
2023/01/11 11:33:34;;;;;;;;;1.00;1.00;;;;;15.92;100.00;101306.41;5026800;28;45430;-79
2023/01/11 11:36:06;;;;;;;;;3.67;1.67;;;;;15.82;100.00;101311.63;5022291;28;45397;-75
2023/01/11 11:38:35;;;;;;;;;3.00;2.00;;;;;15.67;100.00;101307.31;5017580;28;45642;-77
2023/01/11 11:41:13;;;;;;;;;5.00;1.00;;;;;15.44;100.00;101290.53;5020038;28;45902;-79
2023/01/11 11:43:41;;;;;;;;;4.33;1.00;;;;;15.45;100.00;101309.66;5013755;28;45531;-79
2023/01/11 11:46:12;;;;;;;;;2.33;2.33;;;;;15.43;100.00;101303.50;5017671;28;45692;-77
2023/01/11 11:48:39;;;;;;;;;2.00;1.00;;;;;15.24;100.00;101299.88;5023184;28;45533;-78
2023/01/11 11:51:09;;;;;;;;;1.67;1.33;;;;;15.22;100.00;101306.69;5032417;28;46798;-77
2023/01/11 11:53:37;;;;;;;;;2.00;1.00;;;;;15.21;100.00;101303.06;5021911;28;45706;-77
2023/01/11 11:56:18;;;;;;;;;2.33;1.33;;;;;15.15;100.00;101312.28;5022105;28;45923;-76
2023/01/11 11:58:45;;;;;;;;;8.00;3.00;;;;;15.21;100.00;101310.50;5025830;28;45850;-73
2023/01/11 12:01:27;;;;;;;;;3.00;2.00;;;;;15.35;100.00;101306.56;5015383;28;46360;-76